Thunder radar more information blitzortung!


Radar de pluja more information rain snow radar


Visita la nostra xarxa de llocs de meteo:

Template documentation
and downloads

And another site



No particular awareness of the weather is required.    There are no Weather-warnings

Pagina Historial Weather Underground text

Diari Resum Cap La, TWC- Unitats:  Imperial    Mètric   Tant
« Previous Dia
SegĂźent Dia »
Diari Setmana Mensual Anual Personalitzada
  Maxima: Minima: Media:
Temperatura: TemperatureC °F 2.2 °F 3.5 °F
Punt de rosada: DewpointC °F -5.4 °F -3.4 °F
Humitat: Humidity % 57 % 60 %
Wind Speed: WindSpeedKMH mph 0.0 mph 1.2 mph
RĂ fegues de vent: WindSpeedGustKMH mph - -
Vent:- - SSW
Pression baro: PressurehPa in 1027.9 in -
Precipitacions: 0.0 in    
Historical Graphs
 
 
Dades de taula per Cap La, TWC-
Temps Temperatura Punt de rosada Pression baro Vent Wind Speed RĂ fegues de vent Humitat Rainfall Rate (Hourly)
TemperatureC °F DewpointC °F PressurehPa in Calm     Humidity % HourlyPrecipMM in
00:04 4.7 °F -2.2 °F 1029.9 in Calm     61 % 0.0 in
00:09 4.7 °F -1.9 °F 1029.9 in Calm     62 % 0.0 in
00:14 4.7 °F -1.9 °F 1029.9 in Calm     62 % 0.0 in
00:19 4.7 °F -1.9 °F 1029.9 in Calm     62 % 0.0 in
00:24 4.7 °F -1.9 °F 1029.9 in Calm     62 % 0.0 in
00:29 4.5 °F -2.2 °F 1029.9 in SSE 1.9 mph   62 % 0.0 in
00:34 4.4 °F -2.3 °F 1029.9 in Calm     62 % 0.0 in
00:39 4.5 °F -2.2 °F 1029.9 in Calm     62 % 0.0 in
00:44 4.5 °F -2.2 °F 1029.9 in Calm     62 % 0.0 in
00:49 4.6 °F -2.1 °F 1029.9 in Calm     62 % 0.0 in
00:54 4.6 °F -1.8 °F 1029.9 in ENE 2.6 mph 1.4 mph 63 % 0.0 in
00:59 4.6 °F -1.8 °F 1029.9 in ENE 1.9 mph   63 % 0.0 in
01:04 4.7 °F -1.8 °F 1029.9 in Calm     63 % 0.0 in
01:09 4.6 °F -1.8 °F 1029.9 in Calm     63 % 0.0 in
01:14 4.5 °F -1.9 °F 1029.9 in Calm     63 % 0.0 in
01:19 4.5 °F -1.7 °F 1029.9 in ENE 3.7 mph 2.3 mph 64 % 0.0 in
01:24 4.5 °F -1.7 °F 1029.9 in Calm     64 % 0.0 in
01:29 4.5 °F -1.7 °F 1029.9 in ENE 1.9 mph 1.4 mph 64 % 0.0 in
01:34 4.4 °F -2.1 °F 1029.9 in Calm     63 % 0.0 in
01:39 4.3 °F -2.1 °F 1029.9 in Calm     63 % 0.0 in
01:44 4.3 °F -2.1 °F 1029.9 in Calm     63 % 0.0 in
01:49 4.2 °F -2.2 °F 1029.9 in Calm     63 % 0.0 in
01:54 4.2 °F -2.2 °F 1029.9 in Calm     63 % 0.0 in
01:59 4.0 °F -2.4 °F 1029.9 in SW 3.2 mph   63 % 0.0 in
02:04 3.8 °F -3.1 °F 1029.9 in WSW 3.7 mph 3.9 mph 61 % 0.0 in
02:09 3.8 °F -2.8 °F 1029.9 in West 1.9 mph   62 % 0.0 in
02:14 3.7 °F -2.9 °F 1029.9 in WSW 2.6 mph   62 % 0.0 in
02:19 3.8 °F -2.8 °F 1029.9 in WSW 1.9 mph   62 % 0.0 in
02:24 3.7 °F -2.9 °F 1029.9 in SW 3.7 mph 1.9 mph 62 % 0.0 in
02:29 3.5 °F -2.9 °F 1029.9 in Calm     63 % 0.0 in
02:34 3.4 °F -3.0 °F 1029.9 in Calm     63 % 0.0 in
02:39 3.3 °F -3.1 °F 1029.9 in Calm     63 % 0.0 in
02:44 3.2 °F -3.4 °F 1028.9 in Calm     62 % 0.0 in
02:49 3.2 °F -3.4 °F 1028.9 in Calm     62 % 0.0 in
02:54 3.3 °F -3.3 °F 1028.9 in West 2.3 mph 1.9 mph 62 % 0.0 in
02:59 3.4 °F -3.4 °F 1028.9 in West 3.7 mph 3.2 mph 61 % 0.0 in
03:04 3.4 °F -3.4 °F 1028.9 in West 1.9 mph   61 % 0.0 in
03:09 3.5 °F -3.3 °F 1028.9 in Calm     61 % 0.0 in
03:14 3.5 °F -3.6 °F 1028.9 in SW 1.4 mph 1.4 mph 60 % 0.0 in
03:19 3.4 °F -3.4 °F 1028.9 in Calm     61 % 0.0 in
03:24 3.4 °F -3.4 °F 1028.9 in Calm     61 % 0.0 in
03:29 3.4 °F -3.7 °F 1028.9 in West 1.9 mph   60 % 0.0 in
03:34 3.4 °F -3.7 °F 1028.9 in WSW 3.7 mph 2.6 mph 60 % 0.0 in
03:39 3.4 °F -3.9 °F 1028.9 in WSW 3.7 mph 2.6 mph 59 % 0.0 in
03:44 3.4 °F -3.9 °F 1027.9 in SW 3.7 mph 2.3 mph 59 % 0.0 in
03:49 3.4 °F -3.7 °F 1027.9 in WSW 1.9 mph   60 % 0.0 in
03:54 3.6 °F -3.7 °F 1027.9 in WSW 1.9 mph 2.3 mph 59 % 0.0 in
03:59 3.5 °F -3.8 °F 1028.9 in ESE 1.9 mph   59 % 0.0 in
04:04 3.5 °F -3.8 °F 1028.9 in NW 1.9 mph 1.4 mph 59 % 0.0 in
04:09 3.6 °F -3.7 °F 1028.9 in Calm     59 % 0.0 in
04:14 3.6 °F -3.7 °F 1027.9 in Calm     59 % 0.0 in
04:19 3.6 °F -3.7 °F 1027.9 in ENE 1.9 mph 1.4 mph 59 % 0.0 in
04:24 3.5 °F -3.8 °F 1027.9 in ENE 1.9 mph   59 % 0.0 in
04:29 3.4 °F -3.9 °F 1028.9 in NNE 3.7 mph 1.4 mph 59 % 0.0 in
04:34 3.3 °F -4.2 °F 1028.9 in WNW 1.9 mph   58 % 0.0 in
04:39 3.2 °F -4.3 °F 1028.9 in WSW 1.9 mph   58 % 0.0 in
04:44 2.9 °F -4.6 °F 1028.9 in WSW 3.9 mph 2.6 mph 58 % 0.0 in
04:49 2.8 °F -4.9 °F 1028.9 in SW 3.7 mph 3.2 mph 57 % 0.0 in
04:54 2.5 °F -4.9 °F 1028.9 in WSW 1.9 mph   58 % 0.0 in
04:59 2.6 °F -4.8 °F 1028.9 in Calm     58 % 0.0 in
05:04 2.5 °F -5.2 °F 1028.9 in Calm     57 % 0.0 in
05:09 2.5 °F -5.2 °F 1028.9 in SW 3.7 mph 2.6 mph 57 % 0.0 in
05:14 2.4 °F -5.3 °F 1028.9 in SW 2.3 mph 1.9 mph 57 % 0.0 in
05:19 2.4 °F -5.3 °F 1028.9 in Calm     57 % 0.0 in
05:24 2.4 °F -5.3 °F 1028.9 in Calm     57 % 0.0 in
05:29 2.3 °F -5.3 °F 1028.9 in NNE 1.9 mph   57 % 0.0 in
05:34 2.2 °F -5.4 °F 1028.9 in NW 1.9 mph   57 % 0.0 in
05:39 2.3 °F -5.3 °F 1028.9 in Calm     57 % 0.0 in
05:44 2.4 °F -5.3 °F 1028.9 in Calm     57 % 0.0 in
05:49 2.4 °F -5.3 °F 1028.9 in Calm     57 % 0.0 in
05:54 2.5 °F -5.2 °F 1028.9 in Calm     57 % 0.0 in
05:59 2.6 °F -5.1 °F 1028.9 in Calm     57 % 0.0 in
06:04 2.6 °F -5.1 °F 1028.9 in WNW 2.3 mph 1.4 mph 57 % 0.0 in
06:09 2.7 °F -5.0 °F 1028.9 in Calm     57 % 0.0 in
Meteo Sesrovires
Elogis d' Weather Underground - 1 mb

Guio original per  Jim McMurry - jmcmurry@mwt.net Adaptat per a la plantilla per  Wim van der Kuil - Leuven-Template.eu

Trobareu la nostra informacio del temps tambe a:

Weather Underground

AWEKAS